Time,TemperatureF,DewpointF,PressureIn,WindDirection,WindDirectionDegrees,WindSpeedMPH,WindSpeedGustMPH,Humidity,HourlyPrecipIn,Conditions,Clouds,dailyrainin,SoftwareType,DateUTC
2013-05-19 00:01:00,57.0,37.0,-100.00,West,271,5.0,10.0,47,-99.99,,,-99.99,,2013-05-19 00:01:00,
2013-05-19 00:11:00,57.0,37.0,-100.00,West,272,5.0,7.0,47,-99.99,,,-99.99,,2013-05-19 00:11:00,
2013-05-19 00:21:00,58.0,37.0,-100.00,West,280,5.0,8.0,45,-99.99,,,-99.99,,2013-05-19 00:21:00,
2013-05-19 00:31:00,58.0,37.0,-100.00,West,280,5.0,8.0,45,-99.99,,,-99.99,,2013-05-19 00:31:00,
2013-05-19 00:41:00,57.0,35.0,-100.00,West,268,5.0,13.0,44,-99.99,,,-99.99,,2013-05-19 00:41:00,
2013-05-19 00:52:00,56.0,36.0,-100.00,West,270,4.0,8.0,47,-99.99,,,-99.99,,2013-05-19 00:52:00,
2013-05-19 01:01:00,57.0,37.0,-100.00,West,271,5.0,8.0,47,-99.99,,,-99.99,,2013-05-19 01:01:00,
2013-05-19 01:11:00,56.0,38.0,-100.00,West,274,5.0,9.0,50,-99.99,,,-99.99,,2013-05-19 01:11:00,
2013-05-19 01:21:00,55.0,37.0,-100.00,West,275,5.0,9.0,50,-99.99,,,-99.99,,2013-05-19 01:21:00,
2013-05-19 01:32:00,56.0,36.0,-100.00,West,278,5.0,8.0,46,-99.99,,,-99.99,,2013-05-19 01:32:00,
2013-05-19 01:42:00,55.0,35.0,-100.00,West,274,5.0,13.0,47,-99.99,,,-99.99,,2013-05-19 01:42:00,
2013-05-19 01:52:00,55.0,36.0,-100.00,West,272,5.0,8.0,50,-99.99,,,-99.99,,2013-05-19 01:52:00,
2013-05-19 02:01:00,54.0,37.0,-100.00,West,270,5.0,10.0,51,-99.99,,,-99.99,,2013-05-19 02:01:00,
2013-05-19 02:11:00,55.0,37.0,-100.00,West,275,5.0,9.0,50,-99.99,,,-99.99,,2013-05-19 02:11:00,
2013-05-19 02:21:00,54.0,36.0,-100.00,West,275,5.0,8.0,51,-99.99,,,-99.99,,2013-05-19 02:21:00,
2013-05-19 02:32:00,54.0,36.0,-100.00,West,281,4.0,6.0,50,-99.99,,,-99.99,,2013-05-19 02:32:00,
2013-05-19 02:42:00,55.0,36.0,-100.00,West,272,5.0,8.0,49,-99.99,,,-99.99,,2013-05-19 02:42:00,
2013-05-19 02:52:00,53.0,36.0,-100.00,West,275,4.0,5.0,52,-99.99,,,-99.99,,2013-05-19 02:52:00,
2013-05-19 03:01:00,52.0,36.0,-100.00,West,277,4.0,6.0,54,-99.99,,,-99.99,,2013-05-19 03:01:00,
2013-05-19 03:11:00,52.0,36.0,-100.00,WNW,284,6.0,8.0,53,-99.99,,,-99.99,,2013-05-19 03:11:00,
2013-05-19 03:21:00,51.0,34.0,-100.00,West,272,4.0,5.0,51,-99.99,,,-99.99,,2013-05-19 03:21:00,
2013-05-19 03:33:00,54.0,35.0,-100.00,West,272,5.0,8.0,48,-99.99,,,-99.99,,2013-05-19 03:33:00,
2013-05-19 03:42:00,50.0,35.0,-100.00,West,270,3.0,5.0,56,-99.99,,,-99.99,,2013-05-19 03:42:00,
2013-05-19 03:53:00,50.0,33.0,-100.00,WSW,256,3.0,6.0,52,-99.99,,,-99.99,,2013-05-19 03:53:00,
2013-05-19 04:02:00,52.0,35.0,-100.00,West,274,4.0,7.0,53,-99.99,,,-99.99,,2013-05-19 04:02:00,
2013-05-19 04:12:00,50.0,35.0,-100.00,West,280,3.0,4.0,57,-99.99,,,-99.99,,2013-05-19 04:12:00,
2013-05-19 04:23:00,49.0,35.0,-100.00,West,268,3.0,5.0,57,-99.99,,,-99.99,,2013-05-19 04:23:00,
2013-05-19 04:33:00,49.0,34.0,-100.00,West,275,2.0,3.0,56,-99.99,,,-99.99,,2013-05-19 04:33:00,
2013-05-19 04:42:00,50.0,34.0,-100.00,West,260,3.0,7.0,53,-99.99,,,-99.99,,2013-05-19 04:42:00,
2013-05-19 04:52:00,48.0,35.0,-100.00,West,268,2.0,4.0,61,-99.99,,,-99.99,,2013-05-19 04:52:00,
2013-05-19 05:02:00,48.0,34.0,-100.00,West,260,2.0,5.0,57,-99.99,,,-99.99,,2013-05-19 05:02:00,
2013-05-19 05:12:00,49.0,34.0,-100.00,West,274,3.0,4.0,57,-99.99,,,-99.99,,2013-05-19 05:12:00,
2013-05-19 05:22:00,48.0,34.0,-100.00,WSW,253,2.0,6.0,59,-99.99,,,-99.99,,2013-05-19 05:22:00,
2013-05-19 05:32:00,48.0,36.0,-100.00,West,272,2.0,4.0,63,-99.99,,,-99.99,,2013-05-19 05:32:00,
2013-05-19 05:42:00,47.0,35.0,-100.00,West,280,1.0,2.0,61,-99.99,,,-99.99,,2013-05-19 05:42:00,
2013-05-19 05:51:00,48.0,36.0,-100.00,West,270,2.0,3.0,63,-99.99,,,-99.99,,2013-05-19 05:51:00,
2013-05-19 06:02:00,47.0,35.0,-100.00,West,270,1.0,3.0,63,-99.99,,,-99.99,,2013-05-19 06:02:00,
2013-05-19 06:12:00,47.0,35.0,-100.00,West,270,1.0,3.0,63,-99.99,,,-99.99,,2013-05-19 06:12:00,
2013-05-19 06:21:00,44.0,34.0,-100.00,WNW,295,0.0,0.0,66,-99.99,,,-99.99,,2013-05-19 06:21:00,
2013-05-19 06:32:00,44.0,34.0,-100.00,South,175,0.0,0.0,67,-99.99,,,-99.99,,2013-05-19 06:32:00,
2013-05-19 06:42:00,43.0,34.0,-100.00,SSE,152,0.0,0.0,69,-99.99,,,-99.99,,2013-05-19 06:42:00,
2013-05-19 06:51:00,44.0,33.0,-100.00,North,-999,0.0,0.0,65,-99.99,,,-99.99,,2013-05-19 06:51:00,
2013-05-19 07:01:00,44.0,34.0,-100.00,North,-999,0.0,0.0,67,-99.99,,,-99.99,,2013-05-19 07:01:00,
2013-05-19 07:11:00,42.0,33.0,-100.00,SE,130,0.0,0.0,70,-99.99,,,-99.99,,2013-05-19 07:11:00,
2013-05-19 07:21:00,42.0,33.0,-100.00,ESE,112,0.0,0.0,71,-99.99,,,-99.99,,2013-05-19 07:21:00,
2013-05-19 07:32:00,42.0,33.0,-100.00,ESE,112,0.0,0.0,71,-99.99,,,-99.99,,2013-05-19 07:32:00,
2013-05-19 07:42:00,42.0,34.0,-100.00,SE,130,3.0,4.0,72,-99.99,,,-99.99,,2013-05-19 07:42:00,
2013-05-19 07:52:00,42.0,33.0,-100.00,North,-999,0.0,0.0,70,-99.99,,,-99.99,,2013-05-19 07:52:00,
2013-05-19 08:01:00,42.0,33.0,-100.00,North,-999,0.0,0.0,71,-99.99,,,-99.99,,2013-05-19 08:01:00,
2013-05-19 08:12:00,41.0,34.0,-100.00,SE,124,4.0,5.0,74,-99.99,,,-99.99,,2013-05-19 08:12:00,
2013-05-19 08:21:00,41.0,34.0,-100.00,ESE,117,4.0,5.0,75,-99.99,,,-99.99,,2013-05-19 08:21:00,
2013-05-19 08:32:00,41.0,34.0,-100.00,ESE,119,4.0,5.0,74,-99.99,,,-99.99,,2013-05-19 08:32:00,
2013-05-19 08:41:00,42.0,34.0,-100.00,SE,127,4.0,5.0,74,-99.99,,,-99.99,,2013-05-19 08:41:00,
2013-05-19 08:52:00,41.0,34.0,-100.00,SE,124,4.0,5.0,75,-99.99,,,-99.99,,2013-05-19 08:52:00,
2013-05-19 09:02:00,41.0,33.0,-100.00,ESE,120,4.0,5.0,74,-99.99,,,-99.99,,2013-05-19 09:02:00,
2013-05-19 09:11:00,41.0,34.0,-100.00,SE,124,4.0,5.0,76,-99.99,,,-99.99,,2013-05-19 09:11:00,
2013-05-19 09:21:00,41.0,34.0,-100.00,ESE,116,4.0,5.0,77,-99.99,,,-99.99,,2013-05-19 09:21:00,
2013-05-19 09:32:00,41.0,34.0,-100.00,ESE,113,4.0,5.0,77,-99.99,,,-99.99,,2013-05-19 09:32:00,
2013-05-19 09:42:00,41.0,34.0,-100.00,SE,128,4.0,5.0,76,-99.99,,,-99.99,,2013-05-19 09:42:00,
2013-05-19 09:53:00,41.0,34.0,-100.00,ESE,119,4.0,6.0,78,-99.99,,,-99.99,,2013-05-19 09:53:00,
2013-05-19 10:02:00,41.0,34.0,-100.00,ESE,123,4.0,5.0,76,-99.99,,,-99.99,,2013-05-19 10:02:00,
2013-05-19 10:12:00,40.0,34.0,-100.00,SSE,161,2.0,4.0,79,-99.99,,,-99.99,,2013-05-19 10:12:00,
2013-05-19 10:22:00,41.0,35.0,-100.00,SE,127,4.0,4.0,79,-99.99,,,-99.99,,2013-05-19 10:22:00,
2013-05-19 10:32:00,40.0,34.0,-100.00,ESE,120,3.0,4.0,78,-99.99,,,-99.99,,2013-05-19 10:32:00,
2013-05-19 10:42:00,40.0,34.0,-100.00,ESE,116,4.0,5.0,78,-99.99,,,-99.99,,2013-05-19 10:42:00,
2013-05-19 10:52:00,41.0,35.0,-100.00,SE,124,3.0,3.0,79,-99.99,,,-99.99,,2013-05-19 10:52:00,
2013-05-19 11:02:00,40.0,34.0,-100.00,SE,130,3.0,4.0,80,-99.99,,,-99.99,,2013-05-19 11:02:00,
2013-05-19 11:11:00,40.0,34.0,-100.00,SE,128,4.0,4.0,80,-99.99,,,-99.99,,2013-05-19 11:11:00,
2013-05-19 11:21:00,39.0,34.0,-100.00,SE,131,3.0,4.0,82,-99.99,,,-99.99,,2013-05-19 11:21:00,
2013-05-19 11:32:00,40.0,35.0,-100.00,SE,137,2.0,3.0,83,-99.99,,,-99.99,,2013-05-19 11:32:00,
2013-05-19 11:42:00,40.0,34.0,-100.00,SE,127,3.0,5.0,80,-99.99,,,-99.99,,2013-05-19 11:42:00,
2013-05-19 11:52:00,40.0,35.0,-100.00,SE,131,4.0,5.0,81,-99.99,,,-99.99,,2013-05-19 11:52:00,
2013-05-19 12:01:00,40.0,35.0,-100.00,East,100,2.0,3.0,81,-99.99,,,-99.99,,2013-05-19 12:01:00,
2013-05-19 12:11:00,41.0,35.0,-100.00,ESE,107,2.0,3.0,81,-99.99,,,-99.99,,2013-05-19 12:11:00,
2013-05-19 12:21:00,41.0,35.0,-100.00,ESE,123,2.0,3.0,81,-99.99,,,-99.99,,2013-05-19 12:21:00,
2013-05-19 12:31:00,40.0,35.0,-100.00,SE,127,2.0,3.0,82,-99.99,,,-99.99,,2013-05-19 12:31:00,
2013-05-19 12:41:00,40.0,34.0,-100.00,SE,128,3.0,4.0,79,-99.99,,,-99.99,,2013-05-19 12:41:00,
2013-05-19 12:52:00,40.0,33.0,-100.00,ESE,114,4.0,6.0,76,-99.99,,,-99.99,,2013-05-19 12:52:00,
2013-05-19 13:01:00,40.0,35.0,-100.00,East,99,2.0,3.0,82,-99.99,,,-99.99,,2013-05-19 13:01:00,
2013-05-19 13:11:00,40.0,35.0,-100.00,East,99,2.0,3.0,82,-99.99,,,-99.99,,2013-05-19 13:11:00,
2013-05-19 13:21:00,41.0,36.0,-100.00,ESE,107,2.0,3.0,81,-99.99,,,-99.99,,2013-05-19 13:21:00,
2013-05-19 13:31:00,41.0,36.0,-100.00,ESE,107,2.0,3.0,81,-99.99,,,-99.99,,2013-05-19 13:31:00,
2013-05-19 13:42:00,40.0,32.0,-100.00,SE,133,2.0,4.0,74,-99.99,,,-99.99,,2013-05-19 13:42:00,
2013-05-19 13:52:00,40.0,32.0,-100.00,ESE,116,2.0,4.0,74,-99.99,,,-99.99,,2013-05-19 13:52:00,
2013-05-19 14:02:00,41.0,31.0,-100.00,SE,140,3.0,5.0,69,-99.99,,,-99.99,,2013-05-19 14:02:00,
2013-05-19 14:11:00,41.0,31.0,-100.00,ESE,107,2.0,4.0,68,-99.99,,,-99.99,,2013-05-19 14:11:00,
2013-05-19 14:21:00,41.0,31.0,-100.00,North,0,0.0,0.0,67,-99.99,,,-99.99,,2013-05-19 14:21:00,
2013-05-19 14:32:00,42.0,31.0,-100.00,NE,44,6.0,15.0,65,-99.99,,,-99.99,,2013-05-19 14:32:00,
2013-05-19 14:41:00,42.0,31.0,-100.00,ENE,58,9.0,17.0,64,-99.99,,,-99.99,,2013-05-19 14:41:00,
2013-05-19 14:51:00,42.0,31.0,-100.00,ENE,62,11.0,17.0,64,-99.99,,,-99.99,,2013-05-19 14:51:00,
2013-05-19 15:01:00,40.0,32.0,-100.00,ESE,116,2.0,5.0,74,-99.99,,,-99.99,,2013-05-19 15:01:00,
2013-05-19 15:11:00,43.0,31.0,-100.00,ENE,71,9.0,17.0,62,-99.99,,,-99.99,,2013-05-19 15:11:00,
2013-05-19 15:21:00,43.0,31.0,-100.00,NE,54,8.0,13.0,60,-99.99,,,-99.99,,2013-05-19 15:21:00,
2013-05-19 15:33:00,40.0,32.0,-100.00,ESE,103,2.0,4.0,73,-99.99,,,-99.99,,2013-05-19 15:33:00,
2013-05-19 15:43:00,42.0,31.0,-100.00,ENE,65,10.0,17.0,64,-99.99,,,-99.99,,2013-05-19 15:43:00,
2013-05-19 15:53:00,42.0,31.0,-100.00,ENE,65,10.0,17.0,64,-99.99,,,-99.99,,2013-05-19 15:53:00,
2013-05-19 16:03:00,46.0,31.0,-100.00,NE,48,6.0,12.0,55,-99.99,,,-99.99,,2013-05-19 16:03:00,
2013-05-19 16:12:00,46.0,30.0,-100.00,ENE,59,9.0,17.0,54,-99.99,,,-99.99,,2013-05-19 16:12:00,
2013-05-19 16:23:00,47.0,31.0,-100.00,ENE,59,5.0,12.0,53,-99.99,,,-99.99,,2013-05-19 16:23:00,
2013-05-19 16:32:00,44.0,31.0,-100.00,NE,48,7.0,12.0,60,-99.99,,,-99.99,,2013-05-19 16:32:00,
2013-05-19 16:42:00,47.0,31.0,-100.00,NE,44,6.0,10.0,54,-99.99,,,-99.99,,2013-05-19 16:42:00,
2013-05-19 16:52:00,48.0,32.0,-100.00,WNW,298,2.0,4.0,54,-99.99,,,-99.99,,2013-05-19 16:52:00,
2013-05-19 17:02:00,45.0,30.0,-100.00,NE,52,6.0,13.0,56,-99.99,,,-99.99,,2013-05-19 17:02:00,
2013-05-19 17:12:00,46.0,30.0,-100.00,NE,55,9.0,14.0,53,-99.99,,,-99.99,,2013-05-19 17:12:00,
2013-05-19 17:22:00,50.0,30.0,-100.00,NNE,17,3.0,14.0,47,-99.99,,,-99.99,,2013-05-19 17:22:00,
2013-05-19 17:32:00,49.0,31.0,-100.00,ESE,104,3.0,11.0,50,-99.99,,,-99.99,,2013-05-19 17:32:00,
2013-05-19 17:42:00,49.0,31.0,-100.00,WSW,257,3.0,5.0,51,-99.99,,,-99.99,,2013-05-19 17:42:00,
2013-05-19 17:52:00,48.0,31.0,-100.00,NW,326,0.0,3.0,52,-99.99,,,-99.99,,2013-05-19 17:52:00,
2013-05-19 18:02:00,48.0,31.0,-100.00,NW,326,0.0,3.0,52,-99.99,,,-99.99,,2013-05-19 18:02:00,
2013-05-19 18:12:00,51.0,33.0,-100.00,WNW,285,3.0,4.0,50,-99.99,,,-99.99,,2013-05-19 18:12:00,
2013-05-19 18:21:00,49.0,31.0,-100.00,NE,55,3.0,7.0,50,-99.99,,,-99.99,,2013-05-19 18:21:00,
2013-05-19 18:32:00,51.0,32.0,-100.00,WNW,288,2.0,4.0,48,-99.99,,,-99.99,,2013-05-19 18:32:00,
2013-05-19 18:42:00,51.0,32.0,-100.00,WNW,288,2.0,4.0,48,-99.99,,,-99.99,,2013-05-19 18:42:00,
2013-05-19 18:52:00,49.0,31.0,-100.00,ESE,104,3.0,11.0,50,-99.99,,,-99.99,,2013-05-19 18:52:00,
2013-05-19 19:01:00,51.0,31.0,-100.00,West,263,4.0,5.0,45,-99.99,,,-99.99,,2013-05-19 19:01:00,
2013-05-19 19:11:00,51.0,31.0,-100.00,West,263,4.0,5.0,45,-99.99,,,-99.99,,2013-05-19 19:11:00,
2013-05-19 19:21:00,53.0,35.0,-100.00,WNW,285,3.0,5.0,49,-99.99,,,-99.99,,2013-05-19 19:21:00,
2013-05-19 19:32:00,52.0,35.0,-100.00,WNW,301,4.0,7.0,51,-99.99,,,-99.99,,2013-05-19 19:32:00,
2013-05-19 19:42:00,51.0,34.0,-100.00,WNW,289,3.0,5.0,51,-99.99,,,-99.99,,2013-05-19 19:42:00,
2013-05-19 19:52:00,52.0,34.0,-100.00,WNW,288,4.0,5.0,50,-99.99,,,-99.99,,2013-05-19 19:52:00,
2013-05-19 20:02:00,53.0,34.0,-100.00,WNW,282,3.0,5.0,48,-99.99,,,-99.99,,2013-05-19 20:02:00,
2013-05-19 20:11:00,53.0,34.0,-100.00,WNW,282,3.0,5.0,48,-99.99,,,-99.99,,2013-05-19 20:11:00,
2013-05-19 20:21:00,52.0,38.0,-100.00,WNW,291,4.0,6.0,58,-99.99,,,-99.99,,2013-05-19 20:21:00,
2013-05-19 20:31:00,51.0,34.0,-100.00,WNW,288,3.0,4.0,51,-99.99,,,-99.99,,2013-05-19 20:31:00,
2013-05-19 20:41:00,52.0,36.0,-100.00,WNW,301,4.0,6.0,54,-99.99,,,-99.99,,2013-05-19 20:41:00,
2013-05-19 20:52:00,52.0,34.0,-100.00,WNW,295,4.0,6.0,51,-99.99,,,-99.99,,2013-05-19 20:52:00,
2013-05-19 21:02:00,53.0,36.0,-100.00,WNW,295,4.0,6.0,53,-99.99,,,-99.99,,2013-05-19 21:02:00,
2013-05-19 21:11:00,52.0,34.0,-100.00,NW,309,4.0,5.0,49,-99.99,,,-99.99,,2013-05-19 21:11:00,
2013-05-19 21:22:00,52.0,36.0,-100.00,WNW,295,4.0,5.0,55,-99.99,,,-99.99,,2013-05-19 21:22:00,
2013-05-19 21:32:00,53.0,34.0,-100.00,NW,315,3.0,5.0,49,-99.99,,,-99.99,,2013-05-19 21:32:00,
2013-05-19 21:43:00,54.0,34.0,-100.00,NW,308,3.0,4.0,47,-99.99,,,-99.99,,2013-05-19 21:43:00,
2013-05-19 21:53:00,52.0,34.0,-100.00,WNW,295,4.0,7.0,50,-99.99,,,-99.99,,2013-05-19 21:53:00,
2013-05-19 22:02:00,54.0,35.0,-100.00,NW,311,3.0,5.0,49,-99.99,,,-99.99,,2013-05-19 22:02:00,
2013-05-19 22:12:00,53.0,35.0,-100.00,NW,311,3.0,5.0,50,-99.99,,,-99.99,,2013-05-19 22:12:00,
2013-05-19 22:23:00,54.0,34.0,-100.00,WNW,301,3.0,6.0,47,-99.99,,,-99.99,,2013-05-19 22:23:00,
2013-05-19 22:33:00,54.0,34.0,-100.00,WNW,301,3.0,4.0,46,-99.99,,,-99.99,,2013-05-19 22:33:00,
2013-05-19 22:42:00,54.0,34.0,-100.00,WNW,301,3.0,4.0,46,-99.99,,,-99.99,,2013-05-19 22:42:00,
2013-05-19 22:52:00,54.0,34.0,-100.00,NW,306,3.0,5.0,47,-99.99,,,-99.99,,2013-05-19 22:52:00,
2013-05-19 23:02:00,55.0,33.0,-100.00,NW,319,3.0,5.0,44,-99.99,,,-99.99,,2013-05-19 23:02:00,
2013-05-19 23:11:00,54.0,34.0,-100.00,NW,311,3.0,5.0,46,-99.99,,,-99.99,,2013-05-19 23:11:00,
2013-05-19 23:21:00,55.0,34.0,-100.00,WNW,302,3.0,4.0,45,-99.99,,,-99.99,,2013-05-19 23:21:00,
2013-05-19 23:32:00,54.0,34.0,-100.00,NW,304,3.0,4.0,47,-99.99,,,-99.99,,2013-05-19 23:32:00,
2013-05-19 23:42:00,54.0,34.0,-100.00,NW,304,3.0,4.0,47,-99.99,,,-99.99,,2013-05-19 23:42:00,
2013-05-19 23:52:00,58.0,30.0,-100.00,NW,319,0.0,1.0,34,-99.99,,,-99.99,,2013-05-19 23:52:00,